Time;durP1;ratioP1;P1;durP2;ratioP2;P2;SDS_P1;SDS_P2;PMS_P1;PMS_P2;Temp;Humidity;BMP_temperature;BMP_pressure;BME280_temperature;BME280_humidity;BME280_pressure;Samples;Min_cycle;Max_cycle;Signal;HPM_P1;HPM_P2
2023/08/10 00:01:46;;;;;;;1.58;1.48;;;;;;;20.39;47.17;94869.91;5057069;28;20212;-71
2023/08/10 00:04:17;;;;;;;1.63;1.52;;;;;;;20.37;47.33;94871.53;5057244;28;20197;-70
2023/08/10 00:06:45;;;;;;;1.30;1.30;;;;;;;20.38;47.31;94867.53;5074444;28;20205;-71
2023/08/10 00:09:13;;;;;;;1.20;1.20;;;;;;;20.36;47.04;94878.34;5073495;28;20385;-71
2023/08/10 00:11:43;;;;;;;1.50;1.40;;;;;;;20.37;47.04;94874.31;5056990;28;20200;-71
2023/08/10 00:14:12;;;;;;;2.90;1.40;;;;;;;20.38;47.44;94870.34;5073610;28;20251;-71
2023/08/10 00:16:44;;;;;;;1.35;1.25;;;;;;;20.36;47.62;94869.94;5057011;28;20197;-71
2023/08/10 00:19:14;;;;;;;1.45;1.30;;;;;;;20.32;47.57;94864.41;5059498;28;20240;-71
2023/08/10 00:21:43;;;;;;;1.48;1.40;;;;;;;20.32;48.00;94867.19;5060502;28;20299;-71
2023/08/10 00:24:11;;;;;;;1.48;1.38;;;;;;;20.29;48.38;94858.84;5060293;28;20284;-71
2023/08/10 00:26:39;;;;;;;1.60;1.50;;;;;;;20.26;48.12;94866.09;5077057;28;20296;-71
2023/08/10 00:29:07;;;;;;;1.45;1.35;;;;;;;20.27;48.57;94858.50;5060659;28;20201;-71
2023/08/10 00:31:37;;;;;;;1.45;1.20;;;;;;;20.25;47.91;94853.28;5060249;28;20205;-71
2023/08/10 00:34:06;;;;;;;1.25;1.20;;;;;;;20.24;48.10;94854.50;5076741;28;20204;-71
2023/08/10 00:36:34;;;;;;;2.08;1.30;;;;;;;20.27;48.06;94855.69;5060088;28;20216;-71
2023/08/10 00:39:01;;;;;;;1.23;1.23;;;;;;;20.26;47.86;94852.09;5059978;28;20205;-72
2023/08/10 00:41:28;;;;;;;1.58;1.48;;;;;;;20.26;48.53;94854.09;5060198;28;20203;-71
2023/08/10 00:43:56;;;;;;;1.13;1.13;;;;;;;20.24;48.64;94848.91;5060192;28;20270;-71
2023/08/10 00:46:24;;;;;;;1.60;1.50;;;;;;;20.24;48.78;94848.91;5060444;28;20206;-71
2023/08/10 00:48:53;;;;;;;1.30;1.20;;;;;;;20.20;48.41;94848.97;5076767;28;20232;-71
2023/08/10 00:51:23;;;;;;;2.58;1.38;;;;;;;20.20;48.57;94837.75;5077327;28;20593;-71
2023/08/10 00:53:50;;;;;;;1.13;1.13;;;;;;;20.19;48.26;94829.78;5059713;28;20189;-71
2023/08/10 00:56:19;;;;;;;1.85;1.55;;;;;;;20.15;48.38;94832.66;5060431;28;20204;-71
2023/08/10 00:58:47;;;;;;;1.52;1.42;;;;;;;20.13;48.72;94821.06;5077243;28;20181;-71
2023/08/10 01:01:15;;;;;;;1.50;1.40;;;;;;;20.14;48.59;94830.25;5060307;28;20200;-71
2023/08/10 01:03:45;;;;;;;1.40;1.30;;;;;;;20.10;48.49;94833.09;5077416;28;20214;-71
2023/08/10 01:06:18;;;;;;;2.33;1.42;;;;;;;20.07;48.34;94839.53;5077336;28;20213;-71
2023/08/10 01:08:55;;;;;;;1.50;1.40;;;;;;;20.06;48.91;94835.16;5060073;28;20212;-71
2023/08/10 01:11:29;;;;;;;1.73;1.63;;;;;;;20.04;48.79;94840.34;5059949;28;20204;-71
2023/08/10 01:14:04;;;;;;;1.58;1.48;;;;;;;20.02;49.14;94834.41;5076954;28;20623;-71
2023/08/10 01:16:33;;;;;;;2.25;1.20;;;;;;;20.00;48.91;94836.81;5059790;28;20193;-71
2023/08/10 01:19:01;;;;;;;1.80;1.48;;;;;;;19.96;49.23;94842.47;5076837;28;20181;-71
2023/08/10 01:21:40;;;;;;;1.65;1.38;;;;;;;19.95;49.16;94843.69;5077178;28;20186;-71
2023/08/10 01:24:20;;;;;;;1.60;1.50;;;;;;;19.95;49.72;94837.28;5076997;28;20200;-71
2023/08/10 01:26:51;;;;;;;1.83;1.45;;;;;;;19.93;49.46;94840.53;5059230;28;20224;-71
2023/08/10 01:29:20;;;;;;;1.70;1.40;;;;;;;19.93;50.27;94848.94;5058946;28;20204;-71
2023/08/10 01:31:48;;;;;;;1.40;1.40;;;;;;;19.92;49.76;94849.31;5075124;28;20214;-71
2023/08/10 01:34:16;;;;;;;1.60;1.50;;;;;;;19.91;49.40;94844.94;5058844;28;20204;-71
2023/08/10 01:36:47;;;;;;;1.75;1.50;;;;;;;19.90;49.30;94840.56;5075649;28;20205;-71
2023/08/10 01:39:15;;;;;;;2.15;1.50;;;;;;;19.90;48.93;94841.34;5076823;28;20268;-71
2023/08/10 01:41:43;;;;;;;1.40;1.30;;;;;;;19.92;49.24;94840.94;5076624;28;20195;-71
2023/08/10 01:44:11;;;;;;;2.00;1.35;;;;;;;19.92;49.54;94846.53;5076395;28;20534;-71
2023/08/10 01:46:40;;;;;;;1.67;1.50;;;;;;;19.91;49.98;94844.94;5076484;28;20197;-71
2023/08/10 01:49:10;;;;;;;1.75;1.63;;;;;;;19.89;49.86;94852.97;5076179;28;20208;-71
2023/08/10 01:51:39;;;;;;;1.63;1.52;;;;;;;19.89;49.83;94853.75;5076280;28;20633;-71
2023/08/10 01:54:08;;;;;;;1.83;1.58;;;;;;;19.84;50.30;94845.81;5076465;28;20246;-71
2023/08/10 01:56:36;;;;;;;1.63;1.52;;;;;;;19.83;50.02;94843.47;5059231;28;20189;-71
2023/08/10 01:59:04;;;;;;;2.53;1.38;;;;;;;19.82;50.25;94844.66;5058689;28;20662;-71
2023/08/10 02:01:36;;;;;;;1.67;1.55;;;;;;;19.81;49.54;94834.66;5075681;28;20204;-71
2023/08/10 02:04:05;;;;;;;2.30;1.40;;;;;;;19.80;49.44;94825.50;5059362;28;20207;-71
2023/08/10 02:06:37;;;;;;;1.42;1.40;;;;;;;19.80;49.39;94850.69;5076118;28;20230;-71
2023/08/10 02:09:05;;;;;;;1.60;1.30;;;;;;;19.80;49.39;94849.88;5076126;28;20270;-71
2023/08/10 02:11:33;;;;;;;1.50;1.40;;;;;;;19.79;49.66;94856.66;5058640;28;20203;-71
2023/08/10 02:14:01;;;;;;;1.55;1.45;;;;;;;19.78;49.25;94855.88;5058553;28;20201;-71
2023/08/10 02:16:28;;;;;;;1.77;1.67;;;;;;;19.74;49.60;94865.53;5076395;28;20200;-71
2023/08/10 02:19:01;;;;;;;1.30;1.30;;;;;;;19.72;49.95;94877.16;5075870;28;20242;-71
2023/08/10 02:21:28;;;;;;;2.05;1.60;;;;;;;19.70;50.01;94876.75;5075942;28;20178;-71
2023/08/10 02:23:55;;;;;;;1.50;1.40;;;;;;;19.69;50.03;94887.16;5076030;28;20212;-71
2023/08/10 02:26:23;;;;;;;1.80;1.63;;;;;;;19.71;50.22;94895.13;5075842;28;20197;-71
2023/08/10 02:28:52;;;;;;;1.60;1.50;;;;;;;19.69;50.81;94903.97;5075434;28;20205;-71
2023/08/10 02:31:22;;;;;;;1.50;1.40;;;;;;;19.66;50.36;94909.59;5075830;28;20254;-71
2023/08/10 02:33:53;;;;;;;2.08;1.60;;;;;;;19.66;51.33;94923.56;5075711;28;20181;-71
2023/08/10 02:36:22;;;;;;;1.98;1.88;;;;;;;19.58;52.52;94939.59;5075152;28;20561;-71
2023/08/10 02:38:50;;;;;;;2.40;2.10;;;;;;;19.41;54.98;94948.97;5075322;28;20185;-71
2023/08/10 02:41:18;;;;;;;2.00;1.90;;;;;;;19.31;54.97;94949.84;5057781;28;20189;-71
2023/08/10 02:43:46;;;;;;;2.00;1.80;;;;;;;19.16;57.77;94955.53;5057626;28;20605;-71
2023/08/10 02:46:16;;;;;;;2.20;2.00;;;;;;;18.93;59.46;94958.91;5075561;28;20200;-71
2023/08/10 02:48:44;;;;;;;2.45;2.25;;;;;;;18.83;61.14;94970.94;5057867;28;20221;-71
2023/08/10 02:51:12;;;;;;;2.35;2.15;;;;;;;18.72;62.85;94970.22;5057707;28;20197;-69
2023/08/10 02:53:41;;;;;;;2.10;2.00;;;;;;;18.59;63.97;94977.44;5058032;28;20189;-69
2023/08/10 02:56:09;;;;;;;2.75;2.03;;;;;;;18.50;63.95;94973.09;5075361;28;20270;-69
2023/08/10 02:58:40;;;;;;;2.45;2.20;;;;;;;18.42;64.77;94979.91;5075268;28;20186;-69
2023/08/10 03:01:08;;;;;;;2.30;2.10;;;;;;;18.35;66.76;94985.53;5074663;28;20201;-69
2023/08/10 03:03:36;;;;;;;2.30;2.10;;;;;;;18.26;68.04;94982.38;5057722;28;20204;-70
2023/08/10 03:06:04;;;;;;;2.50;2.20;;;;;;;18.22;68.53;94982.38;5074974;28;20216;-70
2023/08/10 03:08:32;;;;;;;3.88;2.00;;;;;;;18.23;69.53;94981.19;5057286;28;20550;-70
2023/08/10 03:11:02;;;;;;;2.30;2.03;;;;;;;18.21;70.40;94983.59;5057589;28;20201;-70
2023/08/10 03:13:30;;;;;;;2.58;2.38;;;;;;;18.08;71.61;94981.63;5057388;28;20229;-70
2023/08/10 03:15:58;;;;;;;5.88;2.75;;;;;;;18.03;71.78;94977.25;5075171;28;20272;-70
2023/08/10 03:18:26;;;;;;;3.22;2.08;;;;;;;17.93;71.42;94980.88;5057588;28;20201;-70
2023/08/10 03:20:54;;;;;;;2.78;2.40;;;;;;;17.86;72.33;94975.31;5057509;28;20193;-70
2023/08/10 03:23:21;;;;;;;4.70;2.65;;;;;;;17.79;73.00;94965.78;5057580;28;20205;-72
2023/08/10 03:25:50;;;;;;;3.15;2.20;;;;;;;17.79;72.96;94976.94;5074957;28;20185;-70
2023/08/10 03:28:24;;;;;;;2.35;2.15;;;;;;;17.83;73.02;94978.91;5057519;28;20209;-70
2023/08/10 03:30:52;;;;;;;2.20;1.90;;;;;;;17.85;73.17;94974.53;5074805;28;20583;-70
2023/08/10 03:33:20;;;;;;;2.50;2.30;;;;;;;17.82;72.95;94978.13;5057538;28;20204;-70
2023/08/10 03:35:50;;;;;;;3.53;2.20;;;;;;;17.84;73.49;94983.31;5074683;28;20294;-70
2023/08/10 03:38:18;;;;;;;2.58;2.30;;;;;;;17.85;73.24;94982.09;5057425;28;20205;-70
2023/08/10 03:40:47;;;;;;;2.17;2.03;;;;;;;17.84;73.55;94978.53;5057883;28;20201;-70
2023/08/10 03:43:17;;;;;;;2.50;2.30;;;;;;;17.90;74.58;94990.03;5057023;28;20247;-70
2023/08/10 03:45:53;;;;;;;2.05;1.90;;;;;;;17.86;75.06;94994.84;5073997;28;20233;-70
2023/08/10 03:48:21;;;;;;;2.45;2.10;;;;;;;17.83;75.27;95001.22;5074753;28;20208;-69
2023/08/10 03:50:51;;;;;;;2.28;2.17;;;;;;;17.79;75.43;95001.22;5057022;28;20647;-69
2023/08/10 03:53:19;;;;;;;2.63;2.40;;;;;;;17.74;74.92;95012.78;5057844;28;20197;-69
2023/08/10 03:55:47;;;;;;;4.22;2.40;;;;;;;17.69;75.62;95013.97;5078706;28;20189;-69
2023/08/10 03:58:18;;;;;;;2.60;2.38;;;;;;;17.68;75.20;95025.53;5079266;28;20185;-69
2023/08/10 04:00:47;;;;;;;2.70;2.50;;;;;;;17.66;74.50;95025.13;5077850;28;20204;-70
2023/08/10 04:03:17;;;;;;;2.65;2.28;;;;;;;17.68;73.56;95031.09;5060931;28;20229;-67
2023/08/10 04:05:45;;;;;;;3.38;2.50;;;;;;;17.69;74.58;95022.34;5078502;28;20196;-67
2023/08/10 04:08:13;;;;;;;2.58;2.38;;;;;;;17.73;75.44;95014.78;5078078;28;20633;-68
2023/08/10 04:10:41;;;;;;;3.17;2.50;;;;;;;17.82;75.03;95010.78;5078369;28;20209;-68
2023/08/10 04:16:00;;;;;;;4.13;2.92;;;;;;;17.81;76.00;95026.75;5060725;28;20192;-68
2023/08/10 04:18:28;;;;;;;3.05;2.85;;;;;;;17.68;76.00;95034.69;5078352;28;20181;-68
2023/08/10 04:20:59;;;;;;;2.90;2.70;;;;;;;17.61;76.75;95031.09;5060739;28;20274;-68
2023/08/10 04:23:26;;;;;;;2.90;2.70;;;;;;;17.57;76.42;95045.03;5060315;28;20204;-67
2023/08/10 04:25:54;;;;;;;3.80;2.90;;;;;;;17.55;76.87;95053.81;5060230;28;20204;-67
2023/08/10 04:28:22;;;;;;;4.00;3.17;;;;;;;17.53;77.18;95064.56;5060213;28;20213;-67
2023/08/10 04:30:51;;;;;;;2.85;2.65;;;;;;;17.50;77.50;95076.53;5078076;28;20204;-67
2023/08/10 04:33:23;;;;;;;2.65;2.45;;;;;;;17.46;77.47;95070.13;5077293;28;20250;-67
2023/08/10 04:35:53;;;;;;;3.92;2.67;;;;;;;17.43;77.76;95076.53;5056946;28;20229;-69
2023/08/10 04:38:24;;;;;;;2.65;2.45;;;;;;;17.40;76.14;95071.75;5057366;28;20201;-67
2023/08/10 04:40:51;;;;;;;2.65;2.45;;;;;;;17.42;76.02;95074.13;5057490;28;20202;-67
2023/08/10 04:43:19;;;;;;;3.35;2.22;;;;;;;17.36;76.47;95075.69;5056973;28;20194;-67
2023/08/10 04:45:46;;;;;;;3.17;2.50;;;;;;;17.36;76.37;95068.16;5073341;28;20201;-67
2023/08/10 04:48:15;;;;;;;3.50;2.70;;;;;;;17.38;77.61;95067.75;5058045;28;20209;-67
2023/08/10 04:50:49;;;;;;;3.25;2.90;;;;;;;17.40;77.79;95068.16;5057345;28;20219;-67
2023/08/10 04:53:17;;;;;;;2.67;2.47;;;;;;;17.42;77.63;95069.34;5057728;28;20272;-70
2023/08/10 04:55:47;;;;;;;2.72;2.28;;;;;;;17.37;76.30;95071.75;5056622;28;20194;-67
2023/08/10 04:58:14;;;;;;;2.50;2.30;;;;;;;17.33;76.75;95078.09;5057536;28;20239;-67
2023/08/10 05:00:45;;;;;;;3.40;3.10;;;;;;;17.31;76.86;95074.91;5057088;28;20201;-67
2023/08/10 05:03:13;;;;;;;3.70;3.08;;;;;;;17.26;76.36;95074.50;5057586;28;20189;-67
2023/08/10 05:05:41;;;;;;;2.60;2.40;;;;;;;17.18;76.40;95061.75;5057050;28;20190;-67
2023/08/10 05:08:11;;;;;;;4.15;2.97;;;;;;;17.11;77.09;95070.13;5057183;28;20216;-67
2023/08/10 05:10:39;;;;;;;3.00;2.65;;;;;;;17.09;76.87;95053.78;5056542;28;20517;-67
2023/08/10 05:13:07;;;;;;;2.97;2.20;;;;;;;17.02;76.60;95048.97;5055603;28;20278;-67
2023/08/10 05:15:38;;;;;;;2.35;2.15;;;;;;;16.96;77.43;95044.22;5057295;28;20196;-67
2023/08/10 05:18:09;;;;;;;3.03;2.20;;;;;;;17.01;77.72;95041.03;5056138;28;20543;-67
2023/08/10 05:21:15;;;;;;;2.53;2.33;;;;;;;17.00;77.55;95039.44;5056068;28;20201;-67
2023/08/10 05:24:19;;;;;;;2.70;2.42;;;;;;;16.99;78.16;95044.22;4998495;28;20214;-67
2023/08/10 05:27:24;;;;;;;3.05;2.67;;;;;;;17.03;78.52;95044.19;4999177;28;20206;-67
2023/08/10 05:30:31;;;;;;;3.10;2.80;;;;;;;17.05;78.79;95039.84;4998907;28;20215;-67
2023/08/10 05:33:36;;;;;;;2.60;2.40;;;;;;;17.11;78.97;95048.63;4999424;28;20206;-67
2023/08/10 05:36:41;;;;;;;5.50;2.90;;;;;;;17.11;79.11;95037.47;4999001;28;20243;-67
2023/08/10 05:39:51;;;;;;;3.30;3.00;;;;;;;17.07;80.07;95014.38;4999090;28;20645;-67
2023/08/10 05:43:00;;;;;;;2.90;2.70;;;;;;;17.10;80.97;95016.34;4999251;28;20203;-67
2023/08/10 05:46:04;;;;;;;3.47;2.90;;;;;;;17.17;80.79;95033.06;4998782;28;20214;-67
2023/08/10 05:49:09;;;;;;;3.50;3.05;;;;;;;17.25;79.88;95036.69;5015010;28;20659;-67
2023/08/10 05:52:14;;;;;;;3.92;3.17;;;;;;;17.26;79.75;95044.66;4998620;28;20210;-67
2023/08/10 05:55:23;;;;;;;3.20;2.90;;;;;;;17.22;79.91;95045.84;5050241;28;20213;-67
2023/08/10 05:58:28;;;;;;;2.78;2.58;;;;;;;17.21;79.63;95050.63;5058482;28;20219;-67
2023/08/10 06:01:35;;;;;;;3.63;2.63;;;;;;;17.20;79.59;95051.00;5058663;28;20219;-67
2023/08/10 06:04:41;;;;;;;3.25;2.90;;;;;;;17.14;79.79;95035.84;5059204;28;20197;-67
2023/08/10 06:07:47;;;;;;;3.10;2.85;;;;;;;17.08;79.56;95036.25;5058491;28;20297;-67
2023/08/10 06:10:53;;;;;;;3.13;2.83;;;;;;;17.09;79.22;95037.84;5058461;28;20239;-67
2023/08/10 06:13:59;;;;;;;2.92;2.67;;;;;;;17.09;79.20;95037.06;5058616;28;20204;-67
2023/08/10 06:17:07;;;;;;;2.88;2.67;;;;;;;17.06;79.56;95041.41;5075456;28;20274;-67
2023/08/10 06:20:16;;;;;;;3.10;2.90;;;;;;;17.06;79.61;95041.41;5058186;28;20189;-67
2023/08/10 06:23:23;;;;;;;2.60;2.40;;;;;;;17.01;79.47;95052.97;5058588;28;20232;-67
2023/08/10 06:25:52;;;;;;;2.85;2.38;;;;;;;17.02;79.10;95057.34;5058078;28;20199;-67
2023/08/10 06:28:22;;;;;;;3.22;3.03;;;;;;;17.05;79.36;95069.69;5058303;28;20204;-67
2023/08/10 06:30:51;;;;;;;3.05;2.85;;;;;;;17.09;80.03;95074.06;5074954;28;20199;-67
2023/08/10 06:33:19;;;;;;;2.90;2.70;;;;;;;17.14;80.90;95081.28;5057854;28;20284;-67
2023/08/10 06:35:47;;;;;;;3.75;2.90;;;;;;;17.17;81.21;95082.44;5054692;28;20654;-67
2023/08/10 06:38:18;;;;;;;2.88;2.65;;;;;;;17.13;80.33;95085.22;5055365;28;20206;-67
2023/08/10 06:40:49;;;;;;;2.88;2.67;;;;;;;17.14;80.63;95091.59;5054813;28;20570;-67
2023/08/10 06:43:18;;;;;;;4.18;3.05;;;;;;;17.17;80.14;95083.25;5054432;28;20630;-67
2023/08/10 06:45:49;;;;;;;4.28;3.30;;;;;;;17.20;81.22;95082.44;5054551;28;20190;-67
2023/08/10 06:48:18;;;;;;;4.30;3.63;;;;;;;17.22;81.25;95082.06;5054250;28;20537;-67
2023/08/10 06:50:46;;;;;;;3.60;3.30;;;;;;;17.22;81.79;95082.06;5054780;28;20229;-67
2023/08/10 06:53:16;;;;;;;3.63;3.30;;;;;;;17.26;81.52;95085.66;5054581;28;20292;-67
2023/08/10 06:55:47;;;;;;;3.50;3.20;;;;;;;17.27;81.44;95087.25;5054176;28;20257;-67
2023/08/10 06:58:24;;;;;;;3.58;3.28;;;;;;;17.30;81.34;95081.69;5054955;28;20208;-67
2023/08/10 07:00:55;;;;;;;3.83;3.42;;;;;;;17.32;81.76;95101.59;5054601;28;20224;-67
2023/08/10 07:03:23;;;;;;;4.40;3.67;;;;;;;17.31;82.29;95086.06;5054402;28;20205;-67
2023/08/10 07:05:55;;;;;;;3.67;2.92;;;;;;;17.31;81.64;95080.47;5054060;28;20585;-67
2023/08/10 07:08:25;;;;;;;2.97;2.78;;;;;;;17.34;81.14;95084.47;5054301;28;20582;-67
2023/08/10 07:10:53;;;;;;;3.90;3.20;;;;;;;17.41;81.39;95083.69;5054695;28;20186;-67
2023/08/10 07:13:28;;;;;;;3.72;3.42;;;;;;;17.48;81.71;95081.69;5053971;28;20221;-67
2023/08/10 07:15:59;;;;;;;3.63;3.33;;;;;;;17.54;82.20;95094.06;5054456;28;20531;-67
2023/08/10 07:18:27;;;;;;;5.28;4.38;;;;;;;17.56;82.26;95090.88;5054170;28;20209;-67
2023/08/10 07:20:56;;;;;;;4.38;3.97;;;;;;;17.54;80.98;95091.28;5054451;28;20225;-67
2023/08/10 07:23:27;;;;;;;3.28;3.08;;;;;;;17.53;80.40;95095.25;5054394;28;20202;-66
2023/08/10 07:25:58;;;;;;;3.38;3.08;;;;;;;17.59;80.44;95092.06;5053696;28;20201;-67
2023/08/10 07:28:26;;;;;;;3.15;2.95;;;;;;;17.62;80.98;95097.66;5055775;28;20212;-67
2023/08/10 07:30:55;;;;;;;3.67;3.38;;;;;;;17.64;80.78;95103.63;5058334;28;20213;-67
2023/08/10 07:33:27;;;;;;;4.05;3.63;;;;;;;17.66;80.67;95104.03;5074531;28;20193;-66
2023/08/10 07:35:59;;;;;;;4.30;3.90;;;;;;;17.70;80.54;95107.59;5061453;28;20656;-66
2023/08/10 07:38:27;;;;;;;4.00;3.70;;;;;;;17.73;80.39;95095.66;5078268;28;20201;-67
2023/08/10 07:40:56;;;;;;;4.47;4.07;;;;;;;17.72;79.66;95087.69;5061312;28;20204;-67
2023/08/10 07:43:28;;;;;;;4.68;4.28;;;;;;;17.74;79.39;95094.47;5061344;28;20204;-67
2023/08/10 07:45:58;;;;;;;4.60;4.20;;;;;;;17.73;78.93;95104.03;5078638;28;20597;-67
2023/08/10 07:48:26;;;;;;;3.90;3.60;;;;;;;17.67;78.66;95100.03;5061294;28;20201;-67
2023/08/10 07:50:57;;;;;;;4.05;3.72;;;;;;;17.71;79.11;95094.47;5079045;28;20205;-67
2023/08/10 07:53:28;;;;;;;4.43;4.13;;;;;;;17.70;79.46;95102.03;5078845;28;20189;-67
2023/08/10 07:55:56;;;;;;;4.40;4.10;;;;;;;17.71;79.15;95106.41;5078700;28;20279;-67
2023/08/10 07:58:28;;;;;;;4.93;4.53;;;;;;;17.75;78.80;95096.06;5061654;28;20201;-68
2023/08/10 08:00:59;;;;;;;4.78;4.43;;;;;;;17.76;78.63;95100.47;5061062;28;20197;-67
2023/08/10 08:03:27;;;;;;;4.72;4.32;;;;;;;17.83;79.03;95107.22;5078751;28;20288;-67
2023/08/10 08:06:02;;;;;;;3.90;3.60;;;;;;;17.84;78.03;95109.63;5078419;28;20189;-67
2023/08/10 08:08:30;;;;;;;3.50;3.20;;;;;;;17.79;77.67;95108.06;5060819;28;20230;-67
2023/08/10 08:10:58;;;;;;;3.25;3.00;;;;;;;17.82;77.46;95102.84;5078489;28;20213;-67
2023/08/10 08:13:30;;;;;;;3.30;2.88;;;;;;;17.82;77.28;95111.22;5077488;28;20204;-67
2023/08/10 08:15:58;;;;;;;3.30;3.00;;;;;;;17.82;77.59;95100.06;5060714;28;20203;-67
2023/08/10 08:18:46;;;;;;;3.45;3.13;;;;;;;17.86;77.58;95106.44;5060738;28;20205;-66
2023/08/10 08:21:16;;;;;;;4.35;2.92;;;;;;;17.89;77.80;95111.22;5060852;28;20201;-66
2023/08/10 08:23:48;;;;;;;3.60;3.30;;;;;;;17.91;77.21;95112.44;5078139;28;20177;-66
2023/08/10 08:26:17;;;;;;;3.22;2.97;;;;;;;17.89;76.36;95114.00;5078332;28;20182;-66
2023/08/10 08:28:47;;;;;;;3.70;3.40;;;;;;;17.90;75.28;95108.06;5061014;28;20215;-66
2023/08/10 08:31:16;;;;;;;3.40;3.20;;;;;;;17.96;76.35;95112.00;5060485;28;20571;-67
2023/08/10 08:33:47;;;;;;;3.38;3.15;;;;;;;18.03;76.18;95105.63;5077661;28;20238;-67
2023/08/10 08:36:16;;;;;;;3.20;2.90;;;;;;;18.07;75.40;95100.84;5077603;28;20240;-67
2023/08/10 08:38:45;;;;;;;3.35;3.10;;;;;;;18.08;74.47;95101.63;5077612;28;20185;-67
2023/08/10 08:41:17;;;;;;;5.40;4.07;;;;;;;18.22;75.57;95102.41;5059860;28;20549;-67
2023/08/10 08:43:48;;;;;;;11.57;8.07;;;;;;;18.33;75.59;95107.97;5077785;28;20185;-67
2023/08/10 08:46:18;;;;;;;9.60;7.07;;;;;;;18.45;75.58;95098.41;5076997;28;20205;-67
2023/08/10 08:48:46;;;;;;;7.00;5.63;;;;;;;18.51;74.73;95100.34;5077825;28;20189;-67
2023/08/10 08:51:14;;;;;;;4.43;4.10;;;;;;;18.61;74.35;95104.31;5077644;28;20209;-67
2023/08/10 08:53:41;;;;;;;4.03;3.72;;;;;;;18.67;74.22;95104.72;5060132;28;20201;-67
2023/08/10 08:56:09;;;;;;;5.22;4.75;;;;;;;18.68;71.87;95103.50;5077603;28;20200;-67
2023/08/10 08:58:39;;;;;;;6.32;5.32;;;;;;;18.79;71.90;95111.88;5059925;28;20205;-67
2023/08/10 09:01:10;;;;;;;5.32;4.25;;;;;;;18.87;72.02;95110.63;5077585;28;20213;-67
2023/08/10 09:03:39;;;;;;;4.32;4.03;;;;;;;19.01;70.79;95110.56;5075927;28;20205;-67
2023/08/10 09:06:07;;;;;;;4.20;3.90;;;;;;;18.98;69.68;95100.22;5059961;28;20205;-67
2023/08/10 09:08:38;;;;;;;4.50;4.10;;;;;;;18.94;69.96;95107.81;5077347;28;20189;-67
2023/08/10 09:11:07;;;;;;;5.03;4.47;;;;;;;18.96;70.42;95108.22;5077285;28;20237;-67
2023/08/10 09:13:36;;;;;;;4.47;4.03;;;;;;;18.94;69.09;95097.44;5059783;28;20197;-67
2023/08/10 09:16:12;;;;;;;4.40;3.70;;;;;;;18.93;68.78;95104.22;5077472;28;20203;-67
2023/08/10 09:18:45;;;;;;;3.97;3.70;;;;;;;18.88;69.41;95110.25;5077044;28;20283;-67
2023/08/10 09:21:20;;;;;;;3.58;3.28;;;;;;;18.88;70.26;95107.47;5076914;28;20181;-67
2023/08/10 09:23:52;;;;;;;3.95;3.72;;;;;;;18.89;69.54;95111.03;5077172;28;20242;-67
2023/08/10 09:26:23;;;;;;;4.13;3.83;;;;;;;18.89;69.19;95111.84;5077003;28;20227;-67
2023/08/10 09:28:51;;;;;;;4.10;3.80;;;;;;;18.94;68.54;95107.81;5076733;28;20282;-67
2023/08/10 09:31:29;;;;;;;3.65;3.35;;;;;;;19.05;68.82;95104.97;5059058;28;20277;-67
2023/08/10 09:33:59;;;;;;;3.00;2.80;;;;;;;19.16;68.95;95103.72;5076785;28;20216;-67
2023/08/10 09:36:28;;;;;;;3.42;3.15;;;;;;;19.28;69.67;95104.44;5076805;28;20323;-67
2023/08/10 09:39:04;;;;;;;3.40;3.10;;;;;;;19.32;69.83;95103.25;5059566;28;20200;-67
2023/08/10 09:41:31;;;;;;;2.95;2.75;;;;;;;19.36;68.57;95100.41;5058925;28;20201;-67
2023/08/10 09:43:58;;;;;;;3.30;3.00;;;;;;;19.41;68.14;95088.78;5058911;28;20213;-67
2023/08/10 09:46:30;;;;;;;3.10;2.90;;;;;;;19.40;66.84;95092.78;5076063;28;20208;-67
2023/08/10 09:49:00;;;;;;;2.97;2.70;;;;;;;19.46;67.32;95091.13;5059242;28;20205;-67
2023/08/10 09:51:37;;;;;;;3.03;2.72;;;;;;;19.48;67.08;95091.53;5075643;28;20206;-67
2023/08/10 09:54:08;;;;;;;3.40;3.10;;;;;;;19.51;67.05;95087.94;5076283;28;20177;-67
2023/08/10 09:56:35;;;;;;;3.50;3.20;;;;;;;19.57;67.58;95089.09;5076574;28;20193;-67
2023/08/10 09:59:04;;;;;;;2.85;2.65;;;;;;;19.66;67.55;95097.03;5058868;28;20205;-67
2023/08/10 10:01:32;;;;;;;4.55;2.75;;;;;;;19.71;64.87;95091.00;5075381;28;20201;-67
2023/08/10 10:03:59;;;;;;;3.30;3.00;;;;;;;19.75;64.91;95102.16;5076340;28;20291;-67
2023/08/10 10:06:28;;;;;;;2.67;2.47;;;;;;;19.82;64.59;95090.91;5076315;28;20281;-67
2023/08/10 10:09:07;;;;;;;4.82;2.92;;;;;;;19.91;64.19;95085.66;5075250;28;20621;-67
2023/08/10 10:11:35;;;;;;;3.58;2.90;;;;;;;19.93;63.78;95095.22;5058437;28;20213;-67
2023/08/10 10:14:04;;;;;;;2.80;2.60;;;;;;;19.94;62.87;95091.22;5058499;28;20200;-67
2023/08/10 10:16:36;;;;;;;2.42;2.10;;;;;;;20.02;62.93;95089.16;5075714;28;20204;-67
2023/08/10 10:19:04;;;;;;;4.25;2.78;;;;;;;20.11;62.52;95091.47;5058843;28;20197;-67
2023/08/10 10:21:37;;;;;;;5.95;2.85;;;;;;;20.14;61.96;95091.41;5075982;28;20204;-67
2023/08/10 10:24:06;;;;;;;2.25;2.10;;;;;;;20.23;61.66;95087.38;5075897;28;20212;-67
2023/08/10 10:26:35;;;;;;;3.15;2.90;;;;;;;20.30;61.88;95081.66;5076009;28;20200;-67
2023/08/10 10:29:15;;;;;;;3.47;3.17;;;;;;;20.40;62.83;95080.75;5058395;28;20212;-67
2023/08/10 10:31:51;;;;;;;2.60;2.40;;;;;;;20.54;60.79;95085.47;5075672;28;20209;-67
2023/08/10 10:34:20;;;;;;;3.30;3.10;;;;;;;20.63;61.31;95086.56;5075612;28;20185;-67
2023/08/10 10:36:48;;;;;;;3.67;3.20;;;;;;;20.54;60.31;95082.66;5075658;28;20264;-67
2023/08/10 10:39:23;;;;;;;3.13;2.50;;;;;;;20.49;60.70;95077.50;5075732;28;20189;-67
2023/08/10 10:41:55;;;;;;;2.60;2.40;;;;;;;20.53;60.79;95079.06;5075583;28;20184;-67
2023/08/10 10:44:48;;;;;;;2.40;2.28;;;;;;;20.47;59.24;95079.91;5058310;28;20266;-67
2023/08/10 10:47:21;;;;;;;2.70;2.50;;;;;;;20.43;59.93;95075.13;5075360;28;20177;-67
2023/08/10 10:49:57;;;;;;;2.65;2.15;;;;;;;20.50;59.85;95074.28;5057853;28;20204;-67
2023/08/10 10:52:37;;;;;;;2.78;2.03;;;;;;;20.53;59.47;95078.28;5075643;28;20189;-67
2023/08/10 10:55:10;;;;;;;2.25;2.08;;;;;;;20.62;59.32;95075.75;5075287;28;20246;-67
2023/08/10 10:57:40;;;;;;;2.05;1.95;;;;;;;20.81;57.68;95079.97;5075414;28;20218;-67
2023/08/10 11:00:18;;;;;;;2.42;2.33;;;;;;;20.88;57.38;95074.25;5058045;28;20193;-67
2023/08/10 11:02:51;;;;;;;2.20;2.10;;;;;;;20.84;58.04;95071.50;5075231;28;20181;-67
2023/08/10 11:05:20;;;;;;;2.80;2.60;;;;;;;20.73;57.99;95070.81;5057372;28;20211;-67
2023/08/10 11:07:55;;;;;;;2.60;2.40;;;;;;;20.66;59.10;95063.31;5057746;28;20197;-67
2023/08/10 11:10:25;;;;;;;2.58;2.38;;;;;;;20.65;58.22;95064.50;5075491;28;20205;-67
2023/08/10 11:12:55;;;;;;;2.85;2.42;;;;;;;20.66;58.35;95070.91;5057756;28;20591;-67
2023/08/10 11:15:26;;;;;;;2.88;2.67;;;;;;;20.66;58.53;95068.09;5075174;28;20186;-67
2023/08/10 11:17:57;;;;;;;1.90;1.80;;;;;;;20.72;57.55;95071.25;5057567;28;20542;-67
2023/08/10 11:20:25;;;;;;;2.38;1.92;;;;;;;21.05;57.01;95070.41;5057552;28;20197;-67
2023/08/10 11:22:53;;;;;;;2.58;2.38;;;;;;;21.34;56.61;95065.22;5074838;28;20663;-67
2023/08/10 11:25:26;;;;;;;2.42;2.33;;;;;;;21.56;56.80;95062.09;5075343;28;20193;-67
2023/08/10 11:27:56;;;;;;;2.90;2.70;;;;;;;21.73;55.53;95074.28;5074960;28;20185;-67
2023/08/10 11:30:25;;;;;;;2.83;2.65;;;;;;;21.74;55.70;95067.44;5074449;28;20235;-67
2023/08/10 11:32:57;;;;;;;2.15;2.05;;;;;;;21.83;55.89;95060.06;5075173;28;20192;-67
2023/08/10 11:35:26;;;;;;;2.15;2.05;;;;;;;22.05;55.13;95062.53;5074728;28;20323;-67
2023/08/10 11:37:57;;;;;;;4.13;2.88;;;;;;;21.97;52.63;95056.25;5074540;28;20292;-67
2023/08/10 11:40:25;;;;;;;2.55;2.20;;;;;;;21.75;52.98;95054.97;5075245;28;20207;-67
2023/08/10 11:43:08;;;;;;;2.33;2.10;;;;;;;21.93;53.79;95044.25;5057272;28;20201;-67
2023/08/10 11:45:40;;;;;;;2.55;2.35;;;;;;;21.98;52.81;95054.22;5074530;28;20600;-67
2023/08/10 11:48:19;;;;;;;2.17;2.00;;;;;;;21.96;52.73;95048.22;5074528;28;20200;-67
2023/08/10 11:50:50;;;;;;;2.20;2.10;;;;;;;21.88;52.38;95044.75;5057329;28;20686;-67
2023/08/10 11:53:25;;;;;;;3.42;2.13;;;;;;;21.72;53.06;95047.44;5057188;28;20189;-67
2023/08/10 11:55:57;;;;;;;2.47;2.10;;;;;;;21.90;52.63;95044.34;5074989;28;20230;-67
2023/08/10 11:58:24;;;;;;;2.10;1.90;;;;;;;22.14;52.17;95045.94;5075200;28;20189;-67
2023/08/10 12:00:53;;;;;;;1.60;1.50;;;;;;;22.34;51.22;95034.75;5074584;28;20267;-68
2023/08/10 12:03:26;;;;;;;2.10;1.90;;;;;;;22.28;51.65;95033.66;5057240;28;20248;-67